Time;durP1;ratioP1;P1;durP2;ratioP2;P2;SDS_P1;SDS_P2;PMS_P1;PMS_P2;Temp;Humidity;BMP_temperature;BMP_pressure;BME280_temperature;BME280_humidity;BME280_pressure;Samples;Min_cycle;Max_cycle;Signal;HPM_P1;HPM_P2
2022/11/08 00:02:01;;;;;;;0.10;0.10;;;;;;;14.06;70.25;100911.78;5058432;28;20396;-79
2022/11/08 00:04:33;;;;;;;0.08;0.08;;;;;;;14.05;70.47;100912.69;5066169;28;20075;-78
2022/11/08 00:15:19;;;;;;;1.08;0.98;;;;;;;13.92;70.70;100904.25;5090295;28;20077;-79
2022/11/08 00:17:45;;;;;;;0.10;0.10;;;;;;;13.85;71.26;100903.56;5088317;28;20031;-78
2022/11/08 00:20:11;;;;;;;2.83;0.65;;;;;;;13.78;71.44;100904.69;5078356;28;20493;-79
2022/11/08 00:22:37;;;;;;;0.10;0.10;;;;;;;13.79;71.45;100903.78;5082795;28;20039;-79
2022/11/08 00:25:03;;;;;;;0.20;0.20;;;;;;;13.79;71.29;100893.13;5084292;28;20203;-79
2022/11/08 00:27:30;;;;;;;0.10;0.10;;;;;;;13.72;71.42;100897.78;5083285;28;20028;-79
2022/11/08 00:29:56;;;;;;;0.10;0.10;;;;;;;13.66;71.32;100891.78;5081678;28;20017;-79
2022/11/08 00:32:24;;;;;;;0.10;0.10;;;;;;;13.67;71.16;100899.72;5087869;28;20043;-79
2022/11/08 00:34:51;;;;;;;0.17;0.17;;;;;;;13.65;71.47;100900.69;5081785;28;20441;-79
2022/11/08 00:37:20;;;;;;;1.20;1.17;;;;;;;13.61;71.52;100896.38;5085378;28;20026;-79
2022/11/08 00:39:46;;;;;;;0.10;0.10;;;;;;;13.58;71.65;100894.69;5080892;28;20049;-81
2022/11/08 00:42:12;;;;;;;0.10;0.10;;;;;;;13.52;72.06;100889.53;5081247;28;20055;-79
2022/11/08 00:44:38;;;;;;;0.10;0.10;;;;;;;13.50;71.47;100891.41;5085379;28;20028;-79
2022/11/08 00:47:04;;;;;;;0.10;0.10;;;;;;;13.48;71.91;100887.91;5091538;28;20075;-79
2022/11/08 00:49:31;;;;;;;0.20;0.20;;;;;;;13.46;71.93;100893.28;5075890;28;20668;-79
2022/11/08 00:52:00;;;;;;;0.10;0.10;;;;;;;13.43;72.54;100885.38;5083736;28;20123;-78
2022/11/08 00:54:26;;;;;;;0.10;0.10;;;;;;;13.38;72.59;100884.66;5086878;28;20053;-78
2022/11/08 00:56:52;;;;;;;0.10;0.10;;;;;;;13.35;72.61;100888.25;5085558;28;20025;-77
2022/11/08 00:59:19;;;;;;;0.20;0.20;;;;;;;13.33;72.78;100883.91;5082707;28;20604;-77
2022/11/08 01:01:46;;;;;;;0.10;0.10;;;;;;;13.35;72.93;100876.75;5079698;28;20031;-78
2022/11/08 01:04:15;;;;;;;0.20;0.20;;;;;;;13.34;72.82;100872.34;5086807;28;20035;-78
2022/11/08 01:06:42;;;;;;;0.10;0.10;;;;;;;13.33;72.30;100873.25;5087186;28;20051;-77
2022/11/08 01:09:09;;;;;;;0.10;0.10;;;;;;;13.31;72.63;100869.75;5087321;28;20493;-77
2022/11/08 01:11:36;;;;;;;0.10;0.10;;;;;;;13.30;72.73;100873.38;5083672;28;20036;-78
2022/11/08 01:14:03;;;;;;;0.20;0.20;;;;;;;13.25;72.91;100869.03;5088833;28;20070;-80
2022/11/08 01:16:32;;;;;;;0.10;0.10;;;;;;;13.28;72.60;100862.75;5077672;28;20488;-79
2022/11/08 01:19:00;;;;;;;0.10;0.10;;;;;;;13.25;72.39;100861.06;5088311;28;20028;-78
2022/11/08 01:21:27;;;;;;;0.10;0.10;;;;;;;13.23;72.28;100854.03;5078996;28;20073;-79
2022/11/08 01:23:53;;;;;;;0.20;0.20;;;;;;;13.22;72.02;100850.53;5092134;28;20039;-79
2022/11/08 01:26:23;;;;;;;0.13;0.13;;;;;;;13.11;73.23;100847.31;5087824;28;20028;-79
2022/11/08 01:28:49;;;;;;;0.40;0.40;;;;;;;13.04;73.25;100840.44;5088091;28;20385;-79
2022/11/08 01:31:18;;;;;;;1.90;1.75;;;;;;;13.04;72.98;100840.44;5091173;28;20070;-79
2022/11/08 01:33:44;;;;;;;0.10;0.10;;;;;;;13.02;73.29;100842.28;5080074;28;20040;-78
2022/11/08 01:36:14;;;;;;;0.10;0.10;;;;;;;13.02;73.30;100831.63;5085495;28;20028;-80
2022/11/08 01:38:40;;;;;;;0.10;0.10;;;;;;;13.01;72.93;100829.88;5086195;28;20080;-80
2022/11/08 01:41:07;;;;;;;0.10;0.10;;;;;;;12.97;73.44;100829.09;5081686;28;20020;-80
2022/11/08 01:43:38;;;;;;;0.10;0.10;;;;;;;12.98;73.56;100824.66;5088448;28;20482;-79
2022/11/08 01:49:12;;;;;;;0.10;0.10;;;;;;;12.93;73.71;100816.81;5107666;27;20399;-79
2022/11/08 01:51:43;;;;;;;0.10;0.10;;;;;;;12.94;73.68;100808.78;5087797;28;20036;-79
2022/11/08 01:54:17;;;;;;;0.30;0.30;;;;;;;12.99;73.59;100802.47;5085347;28;20446;-77
2022/11/08 01:56:43;;;;;;;0.10;0.10;;;;;;;12.96;73.54;100808.78;5089026;28;20095;-78
2022/11/08 01:59:11;;;;;;;0.10;0.10;;;;;;;12.93;73.63;100796.44;5087701;28;20514;-77
2022/11/08 02:01:38;;;;;;;0.10;0.10;;;;;;;12.94;73.91;100803.47;5089971;28;20119;-77
2022/11/08 02:04:04;;;;;;;0.10;0.10;;;;;;;12.93;73.44;100806.19;5086672;28;20027;-78
2022/11/08 02:06:33;;;;;;;0.10;0.10;;;;;;;12.91;73.88;100795.59;5087055;28;20033;-78
2022/11/08 02:09:02;;;;;;;0.30;0.30;;;;;;;12.88;73.58;100792.16;5087561;28;20024;-78
2022/11/08 02:11:29;;;;;;;0.28;0.28;;;;;;;12.88;74.09;100792.16;5089287;28;20029;-78
2022/11/08 02:13:56;;;;;;;0.10;0.10;;;;;;;12.84;73.82;100790.53;5089519;28;20468;-78
2022/11/08 02:16:22;;;;;;;0.20;0.20;;;;;;;12.87;73.52;100801.06;5088852;28;20601;-77
2022/11/08 02:18:49;;;;;;;0.50;0.50;;;;;;;12.83;73.58;100789.63;5087244;28;20032;-79
2022/11/08 02:21:28;;;;;;;0.32;0.32;;;;;;;12.83;73.28;100786.97;5088261;28;20028;-78
2022/11/08 02:23:59;;;;;;;0.10;0.10;;;;;;;12.78;74.29;100784.47;5089613;28;20395;-78
2022/11/08 02:26:31;;;;;;;0.10;0.10;;;;;;;12.78;73.86;100786.25;5088577;28;20051;-77
2022/11/08 02:28:57;;;;;;;0.10;0.10;;;;;;;12.76;73.68;100777.44;5088241;28;20260;-77
2022/11/08 02:31:23;;;;;;;0.10;0.10;;;;;;;12.76;73.77;100778.31;5088495;28;20277;-77
2022/11/08 02:33:50;;;;;;;0.38;0.38;;;;;;;12.74;74.10;100773.97;5086761;28;20035;-78
2022/11/08 02:36:20;;;;;;;0.20;0.20;;;;;;;12.68;73.92;100763.53;5088617;28;20059;-77
2022/11/08 02:38:51;;;;;;;0.65;0.35;;;;;;;12.67;73.89;100769.75;5089781;28;20089;-78
2022/11/08 02:41:18;;;;;;;0.20;0.20;;;;;;;12.64;74.63;100761.88;5091208;28;20020;-78
2022/11/08 02:43:44;;;;;;;0.10;0.10;;;;;;;12.65;73.65;100764.50;5091644;28;20028;-78
2022/11/08 02:46:10;;;;;;;0.10;0.10;;;;;;;12.62;74.65;100757.47;5092026;28;20070;-77
2022/11/08 02:48:36;;;;;;;0.20;0.20;;;;;;;12.62;74.43;100762.81;5087254;28;20073;-77
2022/11/08 02:51:02;;;;;;;0.10;0.10;;;;;;;12.61;74.59;100752.19;5090138;28;20445;-78
2022/11/08 02:53:28;;;;;;;0.10;0.10;;;;;;;12.61;75.01;100753.06;5090404;28;20483;-77
2022/11/08 02:55:54;;;;;;;0.57;0.50;;;;;;;12.62;74.38;100744.19;5088242;28;20158;-78
2022/11/08 02:58:21;;;;;;;0.10;0.10;;;;;;;12.65;74.52;100729.03;5086976;28;20075;-78
2022/11/08 03:00:47;;;;;;;0.93;0.85;;;;;;;12.64;74.50;100730.84;5074891;28;20111;-77
2022/11/08 03:03:13;;;;;;;0.10;0.10;;;;;;;12.66;74.53;100728.13;5075175;28;20499;-77
2022/11/08 03:05:39;;;;;;;0.13;0.13;;;;;;;12.67;74.13;100722.75;5076922;28;20044;-78
2022/11/08 03:08:05;;;;;;;0.22;0.20;;;;;;;12.68;74.47;100718.34;5079601;28;20491;-77
2022/11/08 03:10:31;;;;;;;0.30;0.30;;;;;;;12.67;74.06;100709.47;5076446;28;20115;-77
2022/11/08 03:12:59;;;;;;;0.10;0.10;;;;;;;12.65;74.21;100711.34;5074582;28;20499;-77
2022/11/08 03:15:26;;;;;;;0.20;0.20;;;;;;;12.68;73.89;100702.38;5074830;28;20024;-78
2022/11/08 03:17:54;;;;;;;0.30;0.30;;;;;;;12.68;73.87;100699.72;5075473;28;20031;-77
2022/11/08 03:20:20;;;;;;;0.10;0.10;;;;;;;12.68;74.22;100689.09;5076012;28;20021;-78
2022/11/08 03:22:46;;;;;;;0.10;0.10;;;;;;;12.65;73.91;100691.84;5077022;28;20036;-78
2022/11/08 03:25:13;;;;;;;0.10;0.10;;;;;;;12.65;73.92;100678.53;5074229;28;20104;-78
2022/11/08 03:27:39;;;;;;;0.17;0.17;;;;;;;12.62;74.22;100680.41;5075270;28;20025;-78
2022/11/08 03:30:06;;;;;;;0.15;0.15;;;;;;;12.65;74.13;100673.22;5076204;28;20036;-77
2022/11/08 03:32:32;;;;;;;0.10;0.10;;;;;;;12.62;73.84;100667.13;5075058;28;20123;-78
2022/11/08 03:34:59;;;;;;;0.10;0.10;;;;;;;12.62;73.99;100659.13;5073137;28;20031;-77
2022/11/08 03:37:25;;;;;;;0.10;0.10;;;;;;;12.64;74.02;100658.22;5075902;28;20017;-77
2022/11/08 03:39:51;;;;;;;0.10;0.10;;;;;;;12.61;73.97;100649.41;5077544;28;20095;-78
2022/11/08 03:42:17;;;;;;;0.10;0.10;;;;;;;12.64;74.22;100636.97;5076794;28;20139;-77
2022/11/08 03:44:44;;;;;;;0.30;0.30;;;;;;;12.63;74.11;100630.75;5076535;28;20031;-77
2022/11/08 03:47:10;;;;;;;0.10;0.10;;;;;;;12.60;73.73;100629.06;5074231;28;20515;-78
2022/11/08 03:49:36;;;;;;;0.10;0.10;;;;;;;12.60;74.07;100622.91;5074555;28;20044;-78
2022/11/08 03:52:02;;;;;;;0.10;0.10;;;;;;;12.59;74.00;100627.31;5078746;28;20505;-78
2022/11/08 03:54:28;;;;;;;0.10;0.10;;;;;;;12.58;74.01;100627.38;5075453;28;20056;-77
2022/11/08 03:56:54;;;;;;;0.10;0.10;;;;;;;12.58;73.75;100624.72;5075323;28;20021;-78
2022/11/08 03:59:20;;;;;;;0.20;0.20;;;;;;;12.53;73.91;100627.50;5073048;28;20107;-78
2022/11/08 04:01:46;;;;;;;0.10;0.10;;;;;;;12.54;73.92;100618.63;5075139;28;20443;-78
2022/11/08 04:04:12;;;;;;;0.20;0.20;;;;;;;12.53;73.47;100616.88;5074267;28;20024;-78
2022/11/08 04:06:38;;;;;;;0.10;0.10;;;;;;;12.50;73.61;100617.00;5075537;28;20027;-77
2022/11/08 04:09:04;;;;;;;0.10;0.10;;;;;;;12.47;73.88;100611.75;5072440;28;20051;-77
2022/11/08 04:17:03;;;;;;;0.10;0.10;;;;;;;12.44;73.77;100606.56;5070847;28;20033;-77
2022/11/08 04:22:15;;;;;;;0.10;0.10;;;;;;;12.46;73.68;100605.59;5075800;28;20036;-78
2022/11/08 04:24:41;;;;;;;0.00;0.00;;;;;;;12.45;74.26;100609.16;5072275;28;20037;-78
2022/11/08 04:27:07;;;;;;;0.10;0.10;;;;;;;12.50;73.79;100595.75;5074811;28;20080;-77
2022/11/08 04:29:33;;;;;;;0.10;0.10;;;;;;;12.42;73.80;100603.97;5074518;28;20082;-78
2022/11/08 04:31:59;;;;;;;0.15;0.15;;;;;;;12.44;73.76;100595.94;5073702;28;20031;-77
2022/11/08 04:34:25;;;;;;;0.10;0.10;;;;;;;12.48;73.51;100589.59;5073933;28;20020;-77
2022/11/08 04:36:51;;;;;;;0.10;0.10;;;;;;;12.52;73.09;100580.59;5070172;28;20100;-78
2022/11/08 04:39:17;;;;;;;0.20;0.20;;;;;;;12.52;73.00;100577.09;5074464;28;20040;-77
2022/11/08 04:41:44;;;;;;;0.10;0.10;;;;;;;12.53;72.71;100579.69;5072903;28;20024;-77
2022/11/08 04:44:10;;;;;;;0.00;0.00;;;;;;;12.53;72.99;100574.38;5076250;28;20024;-78
2022/11/08 04:46:36;;;;;;;0.10;0.10;;;;;;;12.50;72.71;100569.16;5071826;28;20064;-77
2022/11/08 04:49:02;;;;;;;0.10;0.10;;;;;;;12.52;72.52;100567.31;5074315;28;20073;-77
2022/11/08 04:51:31;;;;;;;0.10;0.10;;;;;;;12.58;72.55;100553.81;5074127;28;20044;-77
2022/11/08 04:53:59;;;;;;;0.10;0.10;;;;;;;12.57;72.08;100552.13;5076773;28;20032;-77
2022/11/08 04:56:27;;;;;;;0.98;0.98;;;;;;;12.59;71.95;100558.22;5072739;28;20025;-77
2022/11/08 04:58:56;;;;;;;0.10;0.10;;;;;;;12.57;72.24;100554.78;5071537;28;20028;-78
2022/11/08 05:01:25;;;;;;;0.10;0.10;;;;;;;12.63;71.57;100556.34;5074483;28;20020;-77
2022/11/08 05:03:52;;;;;;;0.15;0.15;;;;;;;12.57;71.56;100553.88;5072678;28;20056;-78
2022/11/08 05:06:21;;;;;;;0.00;0.00;;;;;;;12.58;72.08;100551.16;5074022;28;20032;-76
2022/11/08 05:08:47;;;;;;;0.10;0.10;;;;;;;12.56;71.05;100547.72;5071544;28;20086;-77
2022/11/08 05:11:16;;;;;;;0.50;0.50;;;;;;;12.57;71.56;100552.13;5071493;28;20107;-77
2022/11/08 05:13:42;;;;;;;0.10;0.10;;;;;;;12.59;71.39;100555.56;5072552;28;20028;-77
2022/11/08 05:16:14;;;;;;;0.10;0.10;;;;;;;12.60;71.45;100538.72;5074512;28;20456;-77
2022/11/08 05:18:41;;;;;;;0.40;0.40;;;;;;;12.58;71.32;100543.19;5073081;28;20017;-77
2022/11/08 05:23:57;;;;;;;0.10;0.10;;;;;;;12.59;71.54;100536.09;5073392;28;20036;-77
2022/11/08 05:26:24;;;;;;;0.32;0.32;;;;;;;12.56;71.05;100537.06;5073279;28;20025;-77
2022/11/08 05:28:50;;;;;;;0.10;0.10;;;;;;;12.57;71.67;100522.88;5076262;28;20020;-77
2022/11/08 05:31:16;;;;;;;0.10;0.10;;;;;;;12.56;71.17;100523.78;5074882;28;20039;-76
2022/11/08 05:33:43;;;;;;;0.20;0.20;;;;;;;12.53;71.13;100515.91;5072841;28;20025;-77
2022/11/08 05:36:11;;;;;;;0.10;0.10;;;;;;;12.56;71.57;100525.56;5073863;28;20042;-77
2022/11/08 05:38:38;;;;;;;0.10;0.10;;;;;;;12.53;71.22;100520.38;5072958;28;20029;-76
2022/11/08 05:41:09;;;;;;;0.10;0.10;;;;;;;12.49;70.57;100508.97;5070602;28;20020;-77
2022/11/08 05:43:35;;;;;;;0.10;0.10;;;;;;;12.51;70.98;100509.78;5073633;28;20052;-77
2022/11/08 05:46:02;;;;;;;0.10;0.10;;;;;;;12.50;70.94;100512.47;5070603;28;20024;-77
2022/11/08 05:48:28;;;;;;;0.30;0.30;;;;;;;12.49;71.36;100514.28;5071755;28;20111;-78
2022/11/08 05:50:55;;;;;;;0.10;0.10;;;;;;;12.48;71.23;100507.22;5071599;28;20041;-77
2022/11/08 05:53:21;;;;;;;0.20;0.20;;;;;;;12.45;71.09;100515.31;5071401;28;20041;-77
2022/11/08 05:55:47;;;;;;;0.10;0.10;;;;;;;12.44;71.38;100517.09;5071335;28;20488;-77
2022/11/08 05:58:14;;;;;;;0.10;0.10;;;;;;;12.43;70.99;100514.47;5071155;28;20029;-77
2022/11/08 06:00:40;;;;;;;0.10;0.10;;;;;;;12.57;70.67;100506.03;5069516;28;20035;-76
2022/11/08 06:03:07;;;;;;;0.10;0.10;;;;;;;12.48;70.79;100507.22;5070225;28;20044;-77
2022/11/08 06:05:33;;;;;;;0.10;0.10;;;;;;;12.51;70.95;100503.59;5069951;28;20029;-77
2022/11/08 06:08:00;;;;;;;0.40;0.40;;;;;;;12.48;70.49;100501.91;5069762;28;20016;-77
2022/11/08 06:10:26;;;;;;;0.20;0.20;;;;;;;12.48;70.68;100503.72;5069494;28;20032;-76
2022/11/08 06:12:52;;;;;;;0.10;0.10;;;;;;;12.56;70.42;100496.31;5070956;28;20029;-77
2022/11/08 06:15:18;;;;;;;0.10;0.10;;;;;;;12.58;69.48;100491.84;5069148;28;20030;-76
2022/11/08 06:17:44;;;;;;;0.43;0.40;;;;;;;12.58;70.17;100492.69;5068880;28;20496;-77
2022/11/08 06:20:13;;;;;;;0.10;0.10;;;;;;;12.64;69.35;100480.16;5070975;28;20025;-77
2022/11/08 06:22:39;;;;;;;0.10;0.10;;;;;;;12.55;69.56;100484.84;5072735;28;20025;-77
2022/11/08 06:25:06;;;;;;;0.10;0.10;;;;;;;12.53;70.15;100485.81;5070432;28;20446;-77
2022/11/08 06:27:32;;;;;;;0.20;0.20;;;;;;;12.52;69.91;100484.06;5071227;28;20107;-78
2022/11/08 06:29:58;;;;;;;0.10;0.10;;;;;;;12.49;70.27;100487.72;5069108;28;20032;-77
2022/11/08 06:32:24;;;;;;;0.35;0.35;;;;;;;12.45;69.90;100494.06;5070120;28;20396;-77
2022/11/08 06:34:50;;;;;;;0.10;0.10;;;;;;;12.49;70.32;100492.16;5072914;28;20032;-78
2022/11/08 06:37:16;;;;;;;0.10;0.10;;;;;;;12.44;69.31;100492.31;5074486;28;20021;-77
2022/11/08 06:39:43;;;;;;;0.10;0.10;;;;;;;12.47;69.41;100497.50;5074439;28;20115;-77
2022/11/08 06:42:09;;;;;;;0.08;0.08;;;;;;;12.47;69.26;100500.16;5071118;28;20060;-76
2022/11/08 06:44:36;;;;;;;0.15;0.15;;;;;;;12.48;69.19;100488.63;5069550;28;20028;-77
2022/11/08 06:47:02;;;;;;;0.15;0.15;;;;;;;12.47;69.01;100484.22;5070361;28;20047;-78
2022/11/08 06:49:28;;;;;;;0.10;0.10;;;;;;;12.47;69.41;100500.16;5071552;28;20041;-78
2022/11/08 06:51:54;;;;;;;0.15;0.15;;;;;;;12.50;69.30;100504.50;5071642;28;20037;-77
2022/11/08 06:54:20;;;;;;;2.20;2.08;;;;;;;12.49;69.10;100516.94;5072513;28;20040;-78
2022/11/08 06:56:46;;;;;;;0.10;0.10;;;;;;;12.56;68.78;100510.50;5070804;28;20032;-77
2022/11/08 06:59:12;;;;;;;0.10;0.10;;;;;;;12.54;68.44;100493.72;5070541;28;20037;-77
2022/11/08 07:01:38;;;;;;;0.10;0.10;;;;;;;12.51;68.89;100485.00;5070199;28;20108;-77
2022/11/08 07:04:05;;;;;;;0.10;0.10;;;;;;;12.53;68.69;100477.84;5067236;28;20024;-78
2022/11/08 07:06:31;;;;;;;0.10;0.10;;;;;;;12.51;68.85;100491.19;5069220;28;20063;-78
2022/11/08 07:08:57;;;;;;;0.20;0.20;;;;;;;12.46;68.78;100486.03;5070217;28;20478;-77
2022/11/08 07:11:23;;;;;;;1.08;0.90;;;;;;;12.45;68.50;100486.94;5073361;28;20480;-77
2022/11/08 07:13:50;;;;;;;0.10;0.10;;;;;;;12.45;68.17;100486.09;5066420;28;20616;-77
2022/11/08 07:16:16;;;;;;;0.10;0.10;;;;;;;12.48;68.54;100488.63;5070731;28;20040;-75
2022/11/08 07:18:42;;;;;;;0.05;0.05;;;;;;;12.48;68.00;100475.34;5071248;28;20033;-76
2022/11/08 07:21:08;;;;;;;0.10;0.10;;;;;;;12.52;68.05;100476.09;5070181;28;21343;-77
2022/11/08 07:23:34;;;;;;;0.20;0.20;;;;;;;12.54;68.40;100463.66;5073524;28;20142;-76
2022/11/08 07:26:02;;;;;;;0.10;0.10;;;;;;;12.58;68.16;100466.13;5071833;28;20411;-76
2022/11/08 07:28:29;;;;;;;0.10;0.10;;;;;;;12.65;67.52;100471.22;5074205;28;20035;-77
2022/11/08 07:31:01;;;;;;;0.10;0.10;;;;;;;12.75;67.91;100475.31;5069524;28;20041;-77
2022/11/08 07:33:27;;;;;;;0.25;0.25;;;;;;;12.78;68.14;100472.53;5071181;28;20039;-77
2022/11/08 07:35:54;;;;;;;0.15;0.15;;;;;;;12.84;67.70;100474.13;5072261;28;20028;-77
2022/11/08 07:38:20;;;;;;;0.75;0.75;;;;;;;12.84;67.67;100476.78;5071044;28;20051;-76
2022/11/08 07:40:47;;;;;;;0.10;0.10;;;;;;;12.93;67.16;100469.34;5069976;28;20460;-77
2022/11/08 07:43:13;;;;;;;3.97;1.58;;;;;;;12.97;66.93;100474.53;5073031;28;20095;-77
2022/11/08 07:45:41;;;;;;;0.38;0.38;;;;;;;13.03;66.58;100477.00;5072540;28;20025;-77
2022/11/08 07:48:10;;;;;;;0.10;0.10;;;;;;;13.11;66.68;100474.94;5071744;28;20476;-78
2022/11/08 07:50:36;;;;;;;0.10;0.10;;;;;;;13.19;66.17;100482.63;5071958;28;20032;-77
2022/11/08 07:53:02;;;;;;;0.82;0.82;;;;;;;13.20;65.55;100490.53;5069928;28;20035;-77
2022/11/08 07:55:28;;;;;;;0.45;0.45;;;;;;;13.27;64.75;100489.41;5072817;28;20029;-77
2022/11/08 07:58:01;;;;;;;0.10;0.10;;;;;;;13.33;64.54;100490.09;5072083;28;20016;-77
2022/11/08 08:00:29;;;;;;;0.10;0.10;;;;;;;13.43;64.69;100486.19;5068507;28;20059;-77
2022/11/08 08:02:58;;;;;;;1.00;1.00;;;;;;;13.47;64.05;100486.94;5071677;28;20036;-76
2022/11/08 08:05:25;;;;;;;0.10;0.10;;;;;;;13.47;64.28;100498.47;5072265;28;20158;-79
2022/11/08 08:07:51;;;;;;;0.10;0.10;;;;;;;13.55;63.99;100496.38;5067603;28;20052;-76
2022/11/08 08:10:17;;;;;;;0.10;0.10;;;;;;;13.63;63.83;100497.88;5071871;28;20039;-76
2022/11/08 08:12:44;;;;;;;0.20;0.20;;;;;;;13.58;63.39;100490.06;5072706;28;20028;-77
2022/11/08 08:15:10;;;;;;;0.10;0.10;;;;;;;13.71;63.42;100493.13;5071231;28;20107;-77
2022/11/08 08:17:36;;;;;;;0.10;0.10;;;;;;;13.77;63.83;100492.91;5071932;28;20063;-77
2022/11/08 08:20:03;;;;;;;0.10;0.10;;;;;;;13.78;63.16;100507.06;5072037;28;20033;-79
2022/11/08 08:22:29;;;;;;;0.10;0.10;;;;;;;13.77;62.78;100492.00;5072604;28;20111;-77
2022/11/08 08:24:55;;;;;;;1.35;1.25;;;;;;;13.81;62.86;100497.16;5073609;28;20036;-79
2022/11/08 08:27:21;;;;;;;0.20;0.20;;;;;;;13.90;62.60;100490.59;5073217;28;20035;-77
2022/11/08 08:29:47;;;;;;;0.10;0.10;;;;;;;13.91;62.70;100506.53;5069697;28;20037;-76
2022/11/08 08:32:13;;;;;;;0.10;0.10;;;;;;;13.90;62.50;100491.47;5071270;28;20032;-77
2022/11/08 08:34:39;;;;;;;1.05;0.95;;;;;;;14.01;61.99;100483.06;5072730;28;20036;-77
2022/11/08 08:37:05;;;;;;;0.10;0.10;;;;;;;14.05;62.02;100479.31;5072635;28;20028;-76
2022/11/08 08:39:31;;;;;;;0.10;0.10;;;;;;;14.09;61.93;100474.75;5072223;28;20036;-77
2022/11/08 08:41:57;;;;;;;0.10;0.10;;;;;;;14.14;61.69;100478.09;5072224;28;20024;-77
2022/11/08 08:44:23;;;;;;;0.10;0.10;;;;;;;14.17;61.39;100470.00;5073014;28;20028;-77
2022/11/08 08:46:49;;;;;;;0.60;0.40;;;;;;;14.27;62.03;100469.59;5070090;28;20079;-78
2022/11/08 08:49:15;;;;;;;0.10;0.10;;;;;;;14.28;61.95;100474.88;5072757;28;20029;-78
2022/11/08 08:51:41;;;;;;;0.10;0.10;;;;;;;14.22;61.51;100468.00;5070352;28;20036;-78
2022/11/08 08:54:08;;;;;;;0.28;0.28;;;;;;;14.26;61.72;100467.88;5072239;28;20079;-78
2022/11/08 08:56:34;;;;;;;0.10;0.10;;;;;;;14.18;61.26;100469.06;5072335;28;20035;-78
2022/11/08 08:59:00;;;;;;;0.10;0.10;;;;;;;14.24;61.58;100462.59;5072071;28;20032;-78
2022/11/08 09:01:26;;;;;;;0.10;0.10;;;;;;;14.24;61.13;100462.59;5070290;28;20036;-77
2022/11/08 09:03:52;;;;;;;0.10;0.10;;;;;;;14.33;61.65;100450.69;5071196;28;20028;-77
2022/11/08 09:06:18;;;;;;;0.10;0.10;;;;;;;14.41;61.84;100453.91;5071464;28;20020;-77
2022/11/08 09:08:44;;;;;;;0.10;0.10;;;;;;;14.42;61.11;100455.66;5071196;28;20025;-77
2022/11/08 09:11:10;;;;;;;0.10;0.10;;;;;;;14.40;61.21;100462.81;5072141;28;20036;-77
2022/11/08 09:13:36;;;;;;;0.45;0.45;;;;;;;14.43;60.98;100468.03;5072436;28;20147;-77
2022/11/08 09:16:02;;;;;;;0.20;0.20;;;;;;;14.35;60.91;100464.81;5069666;28;20036;-77
2022/11/08 09:18:29;;;;;;;0.10;0.10;;;;;;;14.47;61.24;100474.13;5071334;28;20074;-78
2022/11/08 09:20:57;;;;;;;0.82;0.82;;;;;;;14.53;61.03;100474.72;5071903;28;20070;-77
2022/11/08 09:23:23;;;;;;;0.00;0.00;;;;;;;14.59;60.84;100467.38;5071497;28;20142;-77
2022/11/08 09:25:54;;;;;;;0.00;0.00;;;;;;;14.68;60.46;100469.69;5072282;28;20442;-79
2022/11/08 09:28:20;;;;;;;0.10;0.10;;;;;;;14.79;60.60;100470.09;5071824;28;20082;-78
2022/11/08 09:30:46;;;;;;;0.10;0.10;;;;;;;14.75;60.37;100467.63;5068975;28;20055;-78
2022/11/08 09:33:12;;;;;;;0.10;0.10;;;;;;;14.81;60.44;100470.03;5072294;28;20029;-78
2022/11/08 09:35:38;;;;;;;0.10;0.10;;;;;;;14.85;60.11;100466.28;5071429;28;20044;-78
2022/11/08 09:38:04;;;;;;;0.20;0.20;;;;;;;14.86;59.76;100452.00;5071235;28;20028;-78
2022/11/08 09:41:10;;;;;;;0.10;0.10;;;;;;;14.96;59.90;100450.66;5073846;28;20050;-78
2022/11/08 09:46:30;;;;;;;0.10;0.10;;;;;;;14.97;59.70;100462.22;5099362;27;1152061;-78
2022/11/08 09:49:00;;;;;;;0.10;0.10;;;;;;;14.99;59.62;100460.31;5128564;28;20092;-77
2022/11/08 09:51:28;;;;;;;0.20;0.20;;;;;;;14.98;59.80;100459.47;5127035;28;20031;-78
2022/11/08 09:53:58;;;;;;;0.10;0.10;;;;;;;14.99;59.70;100465.66;5129016;27;20102;-79
2022/11/08 09:56:29;;;;;;;0.38;0.38;;;;;;;14.99;60.04;100455.00;5130871;27;20057;-79
2022/11/08 09:59:02;;;;;;;0.10;0.10;;;;;;;14.99;59.80;100455.00;5129128;28;20024;-78
2022/11/08 10:01:31;;;;;;;0.25;0.25;;;;;;;14.97;59.21;100468.41;5130504;27;20032;-77
2022/11/08 10:04:01;;;;;;;0.10;0.10;;;;;;;15.10;59.84;100465.19;5126413;28;20109;-77
2022/11/08 10:12:24;;;;;;;0.38;0.28;;;;;;;15.10;59.44;100466.03;5039192;28;20908;-79
2022/11/08 10:17:57;;;;;;;0.10;0.10;;;;;;;15.05;59.72;100470.72;5103474;27;20393;-78
2022/11/08 10:20:41;;;;;;;0.10;0.10;;;;;;;15.10;59.46;100463.38;5090086;28;20071;-77
2022/11/08 10:23:20;;;;;;;0.15;0.15;;;;;;;15.11;59.53;100465.13;5090919;28;20024;-78
2022/11/08 10:25:53;;;;;;;0.10;0.10;;;;;;;15.09;60.00;100469.69;5090386;28;20051;-78
2022/11/08 10:28:29;;;;;;;0.10;0.10;;;;;;;15.04;59.42;100461.88;5090862;28;20115;-79
2022/11/08 10:30:56;;;;;;;0.10;0.10;;;;;;;15.05;59.75;100462.72;5084107;28;20027;-79
2022/11/08 10:33:33;;;;;;;0.10;0.10;;;;;;;15.09;59.76;100458.13;5075841;28;20055;-79
2022/11/08 10:36:06;;;;;;;0.10;0.10;;;;;;;15.05;59.89;100462.72;5074276;28;20538;-79
2022/11/08 10:38:41;;;;;;;0.10;0.10;;;;;;;15.08;59.80;100464.38;5072811;28;20036;-77
2022/11/08 10:43:54;;;;;;;0.10;0.10;;;;;;;15.13;59.63;100459.75;5068892;28;20394;-79
2022/11/08 10:51:53;;;;;;;0.20;0.20;;;;;;;15.33;59.19;100467.69;5104523;27;20390;-79
2022/11/08 11:03:00;;;;;;;0.10;0.10;;;;;;;15.61;59.77;100449.50;5108299;27;20381;-79
2022/11/08 11:08:14;;;;;;;0.10;0.10;;;;;;;15.74;59.40;100464.03;5048458;28;20393;-77
2022/11/08 11:10:45;;;;;;;0.10;0.10;;;;;;;15.78;59.05;100459.41;5039143;28;20084;-78
2022/11/08 11:16:02;;;;;;;0.10;0.10;;;;;;;15.98;58.84;100450.44;5105484;27;20332;-79
2022/11/08 11:18:32;;;;;;;0.10;0.10;;;;;;;16.07;58.61;100454.47;5090605;28;20028;-80
2022/11/08 11:23:40;;;;;;;0.00;0.00;;;;;;;16.29;58.45;100448.94;5091583;27;20669;-79
2022/11/08 11:26:12;;;;;;;0.10;0.10;;;;;;;16.31;58.02;100452.38;5090790;28;20047;-78
2022/11/08 11:29:12;;;;;;;0.10;0.10;;;;;;;16.42;57.36;100452.69;5089129;28;20514;-78
2022/11/08 11:31:43;;;;;;;0.20;0.20;;;;;;;16.39;57.57;100452.88;5091369;28;20024;-79
2022/11/08 11:42:47;;;;;;;0.10;0.10;;;;;;;16.61;57.62;100446.41;5066060;28;20401;-79
2022/11/08 11:48:00;;;;;;;0.10;0.10;;;;;;;16.70;57.35;100443.28;5111547;27;20454;-79
2022/11/08 11:53:18;;;;;;;0.10;0.10;;;;;;;16.92;57.06;100439.50;5111070;27;20881;-79
2022/11/08 11:59:10;;;;;;;0.10;0.10;;;;;;;17.12;57.06;100443.78;5109650;27;20355;-77
2022/11/08 12:04:31;;;;;;;0.20;0.20;;;;;;;17.27;56.85;100431.38;5076286;27;20387;-77
2022/11/08 12:09:56;;;;;;;0.10;0.10;;;;;;;17.46;56.18;100418.69;5003147;27;20398;-78
2022/11/08 12:12:36;;;;;;;0.10;0.10;;;;;;;17.51;55.89;100426.50;5005109;27;20113;-78
2022/11/08 12:28:46;;;;;;;0.38;0.38;;;;;;;17.54;54.62;100426.31;5094292;27;20332;-77
2022/11/08 12:31:40;;;;;;;0.10;0.10;;;;;;;17.57;54.25;100427.94;5107622;28;20024;-77
2022/11/08 12:34:33;;;;;;;0.10;0.10;;;;;;;17.71;54.55;100424.50;5105779;28;20521;-77
2022/11/08 12:39:56;;;;;;;0.10;0.10;;;;;;;17.70;54.28;100418.28;5108115;27;1170127;-78
2022/11/08 12:51:40;;;;;;;0.15;0.15;;;;;;;17.44;55.56;100430.44;5096836;27;20382;-81
2022/11/08 12:56:47;;;;;;;0.10;0.10;;;;;;;17.27;55.37;100426.00;5057736;28;20361;-79
2022/11/08 12:59:21;;;;;;;0.22;0.22;;;;;;;17.27;55.71;100413.50;5049664;28;20036;-78
2022/11/08 13:01:49;;;;;;;0.75;0.75;;;;;;;17.28;55.87;100411.69;5050528;28;20029;-77
2022/11/08 13:07:00;;;;;;;0.10;0.10;;;;;;;17.38;55.84;100412.03;5140532;27;20583;-78
2022/11/08 13:09:51;;;;;;;0.10;0.10;;;;;;;17.37;55.93;100411.19;5121188;28;20031;-79
2022/11/08 13:15:19;;;;;;;0.10;0.10;;;;;;;17.31;56.40;100414.22;5091156;27;20393;-79
2022/11/08 13:20:46;;;;;;;2.03;1.85;;;;;;;17.30;56.63;100399.09;5109663;27;20386;-79
2022/11/08 13:23:15;;;;;;;0.20;0.20;;;;;;;17.25;56.52;100407.38;5109250;28;20028;-79
2022/11/08 13:25:42;;;;;;;0.10;0.10;;;;;;;17.20;56.09;100403.22;5093626;28;20016;-78
2022/11/08 13:28:44;;;;;;;0.30;0.30;;;;;;;17.21;56.23;100402.25;5091253;28;20050;-78